Portada
METAR-TAF:

METAR-TAF

Aeropuertos :

Ingolstadt, Alemania

latitud: 48-43N, longitud: 011-32E, altitud: 367 m

Observación

El informe se hizo hace 20 minutos, a las 06:20 UTC
Viento 5 kt del norte-noroeste
Temperatura 12°C
Humedad 100%
Presión 1007 hPa
Visibilidad: 7000 m

METAR: ETSI 070620Z AUTO 34005KT 7000 // ////// 12/12 Q1007 ///

Hora: 08:40 (06:40 UTC)


TAF: falta

Observaciones y pronósticos meteorológicos de más de 4000 aeropuertos (mensajes METAR y TAF).

Los puntos amarillos y rojos representan las estaciones disponibles.

Ponga el ratón en el punto deseado para ver el nombre de la estación.

Haga clic para ver las observaciones y los pronósticos meteorológicos.

Para cambiar el mapa : haga clic en los botones verdes con una cruz de color negro para hacer un zoom, en el botón verde con un guión para alejar o en las flechas verdes para mapas adyacentes.


METAR-TAF: